Time;durP1;ratioP1;P1;durP2;ratioP2;P2;SDS_P1;SDS_P2;PMS_P1;PMS_P2;Temp;Humidity;BMP_temperature;BMP_pressure;BME280_temperature;BME280_humidity;BME280_pressure;Samples;Min_cycle;Max_cycle;Signal;HPM_P1;HPM_P2
2023/03/23 00:00:54;;;;;;;46.58;28.17;;;;;;;-142.70;100.00;60390.16;4817487;29;20041;-78
2023/03/23 00:03:21;;;;;;;61.58;36.97;;;;;;;-142.70;100.00;60390.16;4850491;29;20037;-77
2023/03/23 00:05:51;;;;;;;85.28;50.10;;;;;;;-142.70;100.00;60390.16;4832759;29;20088;-77
2023/03/23 00:08:23;;;;;;;54.67;31.02;;;;;;;-142.70;100.00;60390.16;4833635;29;20034;-77
2023/03/23 00:10:52;;;;;;;65.95;33.30;;;;;;;-142.70;100.00;60390.16;4833419;29;20025;-77
2023/03/23 00:13:20;;;;;;;37.30;24.63;;;;;;;-142.70;100.00;60390.16;4817664;29;20423;-77
2023/03/23 00:15:48;;;;;;;53.28;32.88;;;;;;;-142.70;100.00;60390.16;4833452;29;20041;-77
2023/03/23 00:18:21;;;;;;;50.53;30.10;;;;;;;-142.70;100.00;60390.16;4832673;29;20061;-77
2023/03/23 00:20:59;;;;;;;32.33;20.83;;;;;;;-142.70;100.00;60390.16;4819429;29;20041;-77
2023/03/23 00:23:25;;;;;;;27.92;20.15;;;;;;;-142.70;100.00;60390.16;4832284;29;20112;-77
2023/03/23 00:25:56;;;;;;;31.50;20.33;;;;;;;-142.70;100.00;60390.16;4850218;29;20456;-77
2023/03/23 00:28:24;;;;;;;25.15;18.23;;;;;;;-142.70;100.00;60390.16;4833009;29;20105;-76
2023/03/23 00:31:05;;;;;;;25.30;19.20;;;;;;;-142.70;100.00;60390.16;4832933;29;20915;-77
2023/03/23 00:33:40;;;;;;;31.00;21.50;;;;;;;-142.70;100.00;60390.16;4817864;29;20029;-77
2023/03/23 00:36:10;;;;;;;49.08;30.08;;;;;;;-142.70;100.00;60390.16;4833403;29;20131;-77
2023/03/23 00:38:36;;;;;;;61.28;34.72;;;;;;;-142.70;100.00;60390.16;4833516;29;20037;-77
2023/03/23 00:41:02;;;;;;;68.18;38.88;;;;;;;-142.70;100.00;60390.16;4832491;29;20040;-77
2023/03/23 00:43:28;;;;;;;72.05;37.17;;;;;;;-142.70;100.00;60390.16;4832844;29;20496;-77
2023/03/23 00:45:55;;;;;;;64.80;34.75;;;;;;;-142.70;100.00;60390.16;4832798;29;20029;-78
2023/03/23 00:48:24;;;;;;;81.25;42.63;;;;;;;-142.70;100.00;60390.16;4832680;29;20037;-77
2023/03/23 00:50:51;;;;;;;56.60;34.17;;;;;;;-142.70;100.00;60390.16;4832957;29;20037;-78
2023/03/23 00:53:17;;;;;;;63.75;34.55;;;;;;;-142.70;100.00;60390.16;4831936;29;20451;-78
2023/03/23 00:55:44;;;;;;;69.15;37.50;;;;;;;-142.70;100.00;60390.16;4833045;29;20045;-78
2023/03/23 00:58:11;;;;;;;87.53;46.75;;;;;;;-142.70;100.00;60390.16;4832577;29;20042;-78
2023/03/23 01:00:36;;;;;;;74.57;40.85;;;;;;;-142.70;100.00;60390.16;4849863;29;20063;-78
2023/03/23 01:03:02;;;;;;;74.35;41.65;;;;;;;-142.70;100.00;60390.16;4817254;29;20069;-77
2023/03/23 01:05:31;;;;;;;55.40;34.10;;;;;;;-142.70;100.00;60390.16;4832639;29;20037;-78
2023/03/23 01:08:01;;;;;;;58.28;29.13;;;;;;;-142.70;100.00;60390.16;4833129;29;20574;-77
2023/03/23 01:10:27;;;;;;;38.55;23.55;;;;;;;-142.70;100.00;60390.16;4832162;29;20633;-78
2023/03/23 01:12:54;;;;;;;36.67;22.60;;;;;;;-142.70;100.00;60390.16;4817477;29;20045;-78
2023/03/23 01:15:21;;;;;;;26.88;20.65;;;;;;;-142.70;100.00;60390.16;4849142;29;20048;-77
2023/03/23 01:17:47;;;;;;;44.72;27.98;;;;;;;-142.70;100.00;60390.16;4832891;29;20037;-77
2023/03/23 01:20:14;;;;;;;48.65;31.80;;;;;;;-142.70;100.00;60390.16;4816817;29;20035;-77
2023/03/23 01:22:41;;;;;;;63.65;36.80;;;;;;;-142.70;100.00;60390.16;4833196;29;20049;-78
2023/03/23 01:25:07;;;;;;;74.07;38.47;;;;;;;-142.70;100.00;60390.16;4831911;29;20033;-77
2023/03/23 01:27:32;;;;;;;54.92;31.85;;;;;;;-142.70;100.00;60390.16;4817074;29;20041;-78
2023/03/23 01:29:58;;;;;;;48.15;29.80;;;;;;;-142.70;100.00;60390.16;4849172;29;20026;-78
2023/03/23 01:32:23;;;;;;;70.60;37.25;;;;;;;-142.70;100.00;60390.16;4820371;29;20046;-78
2023/03/23 01:34:49;;;;;;;60.20;31.85;;;;;;;-142.70;100.00;60390.16;4852677;29;20042;-77
2023/03/23 01:37:15;;;;;;;58.70;33.05;;;;;;;-142.70;100.00;60390.16;4852785;29;20036;-78
2023/03/23 01:39:41;;;;;;;65.13;37.13;;;;;;;-142.70;100.00;60390.16;4852040;29;20496;-77
2023/03/23 01:42:09;;;;;;;62.75;34.92;;;;;;;-142.70;100.00;60390.16;4836006;29;20161;-77
2023/03/23 01:44:35;;;;;;;60.35;37.67;;;;;;;-142.70;100.00;60390.16;4836024;29;20186;-78
2023/03/23 01:47:00;;;;;;;65.97;39.65;;;;;;;-142.70;100.00;60390.16;4851438;29;20892;-77
2023/03/23 01:49:32;;;;;;;67.65;40.15;;;;;;;-142.70;100.00;60390.16;4836064;29;20128;-77
2023/03/23 01:52:01;;;;;;;77.60;43.17;;;;;;;-142.70;100.00;60390.16;4835573;29;20334;-78
2023/03/23 01:54:26;;;;;;;68.33;33.67;;;;;;;-142.70;100.00;60390.16;4835391;29;20029;-78
2023/03/23 01:57:09;;;;;;;75.63;38.05;;;;;;;-142.70;100.00;60390.16;4819640;29;20064;-78
2023/03/23 01:59:35;;;;;;;63.38;37.30;;;;;;;-142.70;100.00;60390.16;4819245;29;20064;-78
2023/03/23 02:02:01;;;;;;;71.32;40.08;;;;;;;-142.70;100.00;60390.16;4836138;29;20037;-78
2023/03/23 02:04:28;;;;;;;90.97;44.55;;;;;;;-142.70;100.00;60390.16;4834997;29;20037;-78
2023/03/23 02:06:56;;;;;;;138.32;68.28;;;;;;;-142.70;100.00;60390.16;4820297;29;20564;-77
2023/03/23 02:09:21;;;;;;;67.78;43.75;;;;;;;-142.70;100.00;60390.16;4834142;29;20475;-78
2023/03/23 02:11:49;;;;;;;84.57;46.20;;;;;;;-142.70;100.00;60390.16;4819887;29;20056;-77
2023/03/23 02:14:15;;;;;;;179.55;57.85;;;;;;;-142.70;100.00;60390.16;4835453;29;20086;-77
2023/03/23 02:17:02;;;;;;;93.45;49.33;;;;;;;-142.70;100.00;60390.16;4834882;29;20041;-77
2023/03/23 02:20:27;;;;;;;76.13;46.25;;;;;;;-142.70;100.00;60390.16;4851762;29;20041;-78
2023/03/23 02:23:05;;;;;;;142.25;67.82;;;;;;;-142.70;100.00;60390.16;4790551;29;20050;-78
2023/03/23 02:25:37;;;;;;;72.85;45.67;;;;;;;-142.70;100.00;60390.16;4794306;29;20047;-77
2023/03/23 02:28:40;;;;;;;269.70;92.47;;;;;;;-142.70;100.00;60390.16;4836208;29;20108;-78
2023/03/23 02:31:38;;;;;;;88.25;51.67;;;;;;;-142.70;100.00;60390.16;4819326;29;20037;-78
2023/03/23 02:34:09;;;;;;;99.60;56.22;;;;;;;-142.70;100.00;60390.16;4842091;29;20412;-78
2023/03/23 02:36:43;;;;;;;122.28;61.67;;;;;;;-142.70;100.00;60390.16;4835120;29;20038;-78
2023/03/23 02:39:23;;;;;;;138.48;72.68;;;;;;;-142.70;100.00;60390.16;4835410;29;20040;-77
2023/03/23 02:41:56;;;;;;;260.70;102.53;;;;;;;-142.70;100.00;60390.16;4834173;29;20411;-77
2023/03/23 02:44:23;;;;;;;104.53;58.35;;;;;;;-142.70;100.00;60390.16;4818426;29;20079;-77
2023/03/23 02:46:49;;;;;;;175.00;85.07;;;;;;;-142.70;100.00;60390.16;4819505;29;20101;-77
2023/03/23 02:49:16;;;;;;;225.80;92.93;;;;;;;-142.70;100.00;60390.16;4834118;29;20404;-78
2023/03/23 02:51:44;;;;;;;122.28;67.30;;;;;;;-142.70;100.00;60390.16;4834807;29;20033;-78
2023/03/23 02:54:11;;;;;;;93.43;54.72;;;;;;;-142.70;100.00;60390.16;4834625;29;20132;-77
2023/03/23 02:56:36;;;;;;;129.27;59.50;;;;;;;-142.70;100.00;60390.16;4834209;29;20715;-77
2023/03/23 02:59:02;;;;;;;122.03;55.65;;;;;;;-142.70;100.00;60390.16;4834736;29;20060;-77
2023/03/23 03:01:35;;;;;;;125.18;57.80;;;;;;;-142.70;100.00;60390.16;4834220;29;20149;-78
2023/03/23 03:04:13;;;;;;;110.93;52.60;;;;;;;-142.70;100.00;60390.16;4834294;29;20550;-77
2023/03/23 03:07:07;;;;;;;121.05;55.42;;;;;;;-142.70;100.00;60390.16;4833658;29;20128;-78
2023/03/23 03:09:52;;;;;;;166.63;65.22;;;;;;;-142.70;100.00;60390.16;4823605;29;20037;-77
2023/03/23 03:12:26;;;;;;;169.05;62.90;;;;;;;-142.70;100.00;60390.16;4850675;29;20120;-77
2023/03/23 03:15:05;;;;;;;430.20;99.72;;;;;;;-142.70;100.00;60390.16;4850271;29;20428;-77
2023/03/23 03:17:31;;;;;;;91.25;49.08;;;;;;;-142.70;100.00;60390.16;4835096;29;20109;-77
2023/03/23 03:20:02;;;;;;;261.75;68.82;;;;;;;-142.70;100.00;60390.16;4833936;29;20086;-77
2023/03/23 03:22:28;;;;;;;421.15;87.80;;;;;;;-142.70;100.00;60390.16;4834710;29;20120;-78
2023/03/23 03:24:56;;;;;;;157.20;64.40;;;;;;;-142.70;100.00;60390.16;4833840;29;20037;-77
2023/03/23 03:27:23;;;;;;;253.95;81.65;;;;;;;-142.70;100.00;60390.16;4833237;29;20038;-77
2023/03/23 03:29:53;;;;;;;101.32;51.85;;;;;;;-142.70;100.00;60390.16;4833815;29;20097;-77
2023/03/23 03:32:22;;;;;;;105.68;54.95;;;;;;;-142.70;100.00;60390.16;4833731;29;20411;-77
2023/03/23 03:34:50;;;;;;;96.35;50.45;;;;;;;-142.70;100.00;60390.16;4834607;29;20080;-77
2023/03/23 03:37:16;;;;;;;101.68;49.35;;;;;;;-142.70;100.00;60390.16;4833650;29;20038;-77
2023/03/23 03:39:42;;;;;;;112.15;52.38;;;;;;;-142.70;100.00;60390.16;4834224;29;20065;-78
2023/03/23 03:42:07;;;;;;;112.25;53.50;;;;;;;-142.70;100.00;60390.16;4850032;29;20140;-77
2023/03/23 03:44:33;;;;;;;118.97;56.22;;;;;;;-142.70;100.00;60390.16;4850189;29;20132;-78
2023/03/23 03:46:59;;;;;;;172.00;70.13;;;;;;;-142.70;100.00;60390.16;4833705;29;20300;-78
2023/03/23 03:49:25;;;;;;;102.90;49.10;;;;;;;-142.70;100.00;60390.16;4818334;29;20105;-78
2023/03/23 03:51:51;;;;;;;114.63;56.50;;;;;;;-142.70;100.00;60390.16;4850433;29;20540;-77
2023/03/23 03:54:16;;;;;;;130.75;59.75;;;;;;;-142.70;100.00;60390.16;4848642;29;20032;-77
2023/03/23 03:56:42;;;;;;;131.25;58.67;;;;;;;-142.70;100.00;60390.16;4849955;29;20064;-77
2023/03/23 03:59:09;;;;;;;125.10;56.17;;;;;;;-142.70;100.00;60390.16;4832297;29;20029;-77
2023/03/23 04:01:35;;;;;;;142.27;62.20;;;;;;;-142.70;100.00;60390.16;4833929;29;20085;-77
2023/03/23 04:04:00;;;;;;;132.65;57.88;;;;;;;-142.70;100.00;60390.16;4833132;29;20935;-77
2023/03/23 04:06:27;;;;;;;122.95;54.08;;;;;;;-142.70;100.00;60390.16;4833466;29;20076;-77
2023/03/23 04:08:55;;;;;;;138.65;57.03;;;;;;;-142.70;100.00;60390.16;4832926;29;20152;-77
2023/03/23 04:11:20;;;;;;;232.07;64.97;;;;;;;-142.70;100.00;60390.16;4818671;29;20633;-77
2023/03/23 04:13:46;;;;;;;142.30;58.17;;;;;;;-142.70;100.00;60390.16;4833734;29;20029;-78
2023/03/23 04:16:11;;;;;;;228.15;62.47;;;;;;;-142.70;100.00;60390.16;4832954;29;20617;-77
2023/03/23 04:18:38;;;;;;;168.93;60.08;;;;;;;-142.70;100.00;60390.16;4833112;29;20119;-77
2023/03/23 04:21:07;;;;;;;228.02;64.10;;;;;;;-142.70;100.00;60390.16;4849539;29;20029;-77
2023/03/23 04:23:35;;;;;;;153.88;59.25;;;;;;;-142.70;100.00;60390.16;4834239;29;20030;-78
2023/03/23 04:26:03;;;;;;;143.88;61.22;;;;;;;-142.70;100.00;60390.16;4833049;29;20033;-78
2023/03/23 04:28:29;;;;;;;553.85;111.72;;;;;;;-142.70;100.00;60390.16;4849913;29;20124;-78
2023/03/23 04:30:55;;;;;;;252.98;73.90;;;;;;;-142.70;100.00;60390.16;4832515;29;20030;-77
2023/03/23 04:33:26;;;;;;;139.80;59.42;;;;;;;-142.70;100.00;60390.16;4814878;29;20065;-77
2023/03/23 04:35:56;;;;;;;139.07;62.90;;;;;;;-142.70;100.00;60390.16;4843911;29;20040;-77
2023/03/23 04:38:24;;;;;;;232.57;80.50;;;;;;;-142.70;100.00;60390.16;4833100;29;20441;-77
2023/03/23 04:40:52;;;;;;;263.92;86.65;;;;;;;-142.70;100.00;60390.16;4833688;29;20541;-77
2023/03/23 04:43:22;;;;;;;515.88;122.43;;;;;;;-142.70;100.00;60390.16;4832305;29;20029;-77
2023/03/23 04:45:55;;;;;;;156.98;71.82;;;;;;;-142.70;100.00;60390.16;4849994;29;20057;-77
2023/03/23 04:48:24;;;;;;;197.25;76.07;;;;;;;-142.70;100.00;60390.16;4831883;29;20381;-77
2023/03/23 04:50:50;;;;;;;140.70;63.10;;;;;;;-142.70;100.00;60390.16;4849633;29;20049;-78
2023/03/23 04:53:17;;;;;;;195.15;77.07;;;;;;;-142.70;100.00;60390.16;4833000;29;20496;-77
2023/03/23 04:55:43;;;;;;;179.80;70.80;;;;;;;-142.70;100.00;60390.16;4832771;29;20034;-77
2023/03/23 04:58:08;;;;;;;186.27;71.85;;;;;;;-142.70;100.00;60390.16;4832270;29;20101;-77
2023/03/23 05:00:35;;;;;;;162.23;70.80;;;;;;;-142.70;100.00;60390.16;4817030;29;20157;-77
2023/03/23 05:03:00;;;;;;;168.88;67.70;;;;;;;-142.70;100.00;60390.16;4818011;29;20161;-77
2023/03/23 05:05:27;;;;;;;177.48;72.75;;;;;;;-142.70;100.00;60390.16;4832394;29;20487;-78
2023/03/23 05:07:53;;;;;;;347.05;84.18;;;;;;;-142.70;100.00;60390.16;4836822;29;20219;-78
2023/03/23 05:10:18;;;;;;;159.73;66.05;;;;;;;-142.70;100.00;60390.16;4836505;29;20423;-78
2023/03/23 05:12:44;;;;;;;172.65;70.43;;;;;;;-142.70;100.00;60390.16;4836383;29;20034;-78
2023/03/23 05:15:13;;;;;;;235.15;72.65;;;;;;;-142.70;100.00;60390.16;4820746;29;20021;-78
2023/03/23 05:17:40;;;;;;;189.35;68.22;;;;;;;-142.70;100.00;60390.16;4836250;29;20113;-78
2023/03/23 05:20:10;;;;;;;181.63;68.15;;;;;;;-142.70;100.00;60390.16;4836297;29;20034;-77
2023/03/23 05:22:36;;;;;;;312.55;77.68;;;;;;;-142.70;100.00;60390.16;4836497;29;20093;-77
2023/03/23 05:25:02;;;;;;;192.48;67.15;;;;;;;-142.70;100.00;60390.16;4836472;29;20037;-77
2023/03/23 05:27:30;;;;;;;237.70;65.47;;;;;;;-142.70;100.00;60390.16;4835809;29;20064;-77
2023/03/23 05:29:57;;;;;;;227.05;65.32;;;;;;;-142.70;100.00;60390.16;4836432;29;20064;-78
2023/03/23 05:32:28;;;;;;;203.18;68.47;;;;;;;-142.70;100.00;60390.16;4836132;29;20040;-77
2023/03/23 05:34:54;;;;;;;230.27;66.43;;;;;;;-142.70;100.00;60390.16;4820918;29;20123;-78
2023/03/23 05:37:20;;;;;;;220.00;69.72;;;;;;;-142.70;100.00;60390.16;4853078;29;20040;-78
2023/03/23 05:39:45;;;;;;;195.30;64.97;;;;;;;-142.70;100.00;60390.16;4835560;29;20026;-78
2023/03/23 05:42:10;;;;;;;182.13;58.60;;;;;;;-142.70;100.00;60390.16;4836128;29;20030;-77
2023/03/23 05:44:36;;;;;;;222.85;63.42;;;;;;;-142.70;100.00;60390.16;4835307;29;20031;-77
2023/03/23 05:47:03;;;;;;;142.18;54.05;;;;;;;-142.70;100.00;60390.16;4820934;29;20034;-78
2023/03/23 05:49:28;;;;;;;160.77;53.40;;;;;;;-142.70;100.00;60390.16;4851812;29;20041;-78
2023/03/23 05:51:54;;;;;;;239.48;53.75;;;;;;;-142.70;100.00;60390.16;4835641;29;20044;-77
2023/03/23 05:54:20;;;;;;;106.22;43.63;;;;;;;-142.70;100.00;60390.16;4835581;29;20560;-77
2023/03/23 05:56:45;;;;;;;99.63;43.05;;;;;;;-142.70;100.00;60390.16;4836457;29;20053;-78
2023/03/23 05:59:11;;;;;;;86.25;40.67;;;;;;;-142.70;100.00;60390.16;4851992;29;20466;-77
2023/03/23 06:01:37;;;;;;;100.07;40.15;;;;;;;-142.70;100.00;60390.16;4850552;29;20479;-78
2023/03/23 06:04:03;;;;;;;119.32;46.70;;;;;;;-142.70;100.00;60390.16;4835160;29;20446;-77
2023/03/23 06:06:30;;;;;;;134.40;49.00;;;;;;;-142.70;100.00;60390.16;4850291;29;20599;-77
2023/03/23 06:08:56;;;;;;;101.32;44.45;;;;;;;-142.70;100.00;60390.16;4835260;29;20127;-78
2023/03/23 06:11:22;;;;;;;103.03;44.30;;;;;;;-142.70;100.00;60390.16;4850152;29;20571;-78
2023/03/23 06:13:48;;;;;;;99.88;43.90;;;;;;;-142.70;100.00;60390.16;4835225;29;20480;-77
2023/03/23 06:16:14;;;;;;;118.10;46.45;;;;;;;-142.70;100.00;60390.16;4849869;29;20025;-78
2023/03/23 06:18:42;;;;;;;81.57;38.42;;;;;;;-142.70;100.00;60390.16;4851866;29;20499;-77
2023/03/23 06:21:08;;;;;;;77.78;37.80;;;;;;;-142.70;100.00;60390.16;4850133;29;20029;-78
2023/03/23 06:23:34;;;;;;;100.20;41.97;;;;;;;-142.70;100.00;60390.16;4850477;29;20504;-78
2023/03/23 06:26:03;;;;;;;78.70;37.08;;;;;;;-142.70;100.00;60390.16;4834499;29;20041;-77
2023/03/23 06:28:30;;;;;;;97.03;42.78;;;;;;;-142.70;100.00;60390.16;4849741;29;20085;-77
2023/03/23 06:31:00;;;;;;;75.85;39.03;;;;;;;-142.70;100.00;60390.16;4834339;29;20579;-77
2023/03/23 06:33:27;;;;;;;79.30;38.45;;;;;;;-142.70;100.00;60390.16;4850310;29;20026;-77
2023/03/23 06:35:53;;;;;;;72.03;35.88;;;;;;;-142.70;100.00;60390.16;4834767;29;20029;-78
2023/03/23 06:38:18;;;;;;;74.57;38.22;;;;;;;-142.70;100.00;60390.16;4850140;29;20116;-77
2023/03/23 06:40:46;;;;;;;71.25;36.13;;;;;;;-142.70;100.00;60390.16;4851208;29;20038;-78
2023/03/23 06:43:12;;;;;;;72.28;37.97;;;;;;;-142.70;100.00;60390.16;4850243;29;20113;-77
2023/03/23 06:45:38;;;;;;;69.85;37.83;;;;;;;-142.70;100.00;60390.16;4849542;29;20732;-77
2023/03/23 06:48:03;;;;;;;85.38;39.65;;;;;;;-142.70;100.00;60390.16;4849893;29;20068;-77
2023/03/23 06:50:29;;;;;;;70.35;38.40;;;;;;;-142.70;100.00;60390.16;4850871;29;20036;-77
2023/03/23 06:52:54;;;;;;;61.58;33.83;;;;;;;-142.70;100.00;60390.16;4849515;29;20028;-77
2023/03/23 06:55:20;;;;;;;61.75;36.17;;;;;;;-142.70;100.00;60390.16;4848981;29;20029;-77
2023/03/23 06:57:47;;;;;;;68.13;35.33;;;;;;;-142.70;100.00;60390.16;4840416;29;20425;-77
2023/03/23 07:00:13;;;;;;;61.97;33.17;;;;;;;-142.70;100.00;60390.16;4818544;29;20057;-77
2023/03/23 07:02:42;;;;;;;59.17;35.17;;;;;;;-142.70;100.00;60390.16;4819303;29;20034;-78
2023/03/23 07:05:09;;;;;;;54.63;33.63;;;;;;;-142.70;100.00;60390.16;4833274;29;20033;-77
2023/03/23 07:07:36;;;;;;;46.63;28.65;;;;;;;-142.70;100.00;60390.16;4833896;29;20052;-77
2023/03/23 07:10:05;;;;;;;42.60;28.60;;;;;;;-142.70;100.00;60390.16;4849385;29;20040;-78
2023/03/23 07:12:31;;;;;;;43.17;30.10;;;;;;;-142.70;100.00;60390.16;4833042;29;20045;-77
2023/03/23 07:14:56;;;;;;;43.85;31.30;;;;;;;-142.70;100.00;60390.16;4832216;29;20033;-76
2023/03/23 07:17:22;;;;;;;41.80;30.83;;;;;;;-142.70;100.00;60390.16;4832738;29;20093;-75
2023/03/23 07:19:47;;;;;;;37.80;28.67;;;;;;;-142.70;100.00;60390.16;4817681;29;20420;-78
2023/03/23 07:22:13;;;;;;;35.30;28.23;;;;;;;-142.70;100.00;60390.16;4832310;29;20181;-78
2023/03/23 07:24:38;;;;;;;45.25;35.45;;;;;;;-142.70;100.00;60390.16;4830790;29;20048;-78
2023/03/23 07:27:04;;;;;;;47.08;36.03;;;;;;;-142.70;100.00;60390.16;4849005;29;20038;-78
2023/03/23 07:29:29;;;;;;;42.72;34.65;;;;;;;-142.70;100.00;60390.16;4830731;29;20579;-78
2023/03/23 07:31:55;;;;;;;40.47;33.78;;;;;;;-142.70;100.00;60390.16;4830573;29;20488;-75
2023/03/23 07:34:20;;;;;;;37.78;30.30;;;;;;;-142.70;100.00;60390.16;4815391;29;20510;-76
2023/03/23 07:36:46;;;;;;;32.85;27.75;;;;;;;-142.70;100.00;60390.16;4847788;29;20085;-75
2023/03/23 07:39:13;;;;;;;28.17;24.13;;;;;;;-142.70;100.00;60390.16;4830632;29;20041;-76
2023/03/23 07:41:39;;;;;;;32.83;28.40;;;;;;;-142.70;100.00;60390.16;4831027;29;20041;-77
2023/03/23 07:44:05;;;;;;;30.77;27.40;;;;;;;-142.70;100.00;60390.16;4848019;29;20403;-75
2023/03/23 07:46:31;;;;;;;29.00;25.95;;;;;;;-142.70;100.00;60390.16;4847387;29;21186;-75
2023/03/23 07:48:56;;;;;;;31.40;27.27;;;;;;;-142.70;100.00;60390.16;4832206;29;20025;-75
2023/03/23 07:51:23;;;;;;;27.75;24.10;;;;;;;-142.70;100.00;60390.16;4816521;29;20105;-76
2023/03/23 07:53:49;;;;;;;28.33;24.80;;;;;;;-142.70;100.00;60390.16;4816800;29;20184;-77
2023/03/23 07:56:18;;;;;;;34.33;26.35;;;;;;;-142.70;100.00;60390.16;4831541;29;20059;-75
2023/03/23 07:58:44;;;;;;;27.25;23.10;;;;;;;-142.70;100.00;60390.16;4832246;29;20033;-77
2023/03/23 08:01:10;;;;;;;29.10;24.73;;;;;;;-142.70;100.00;60390.16;4831222;29;20034;-75
2023/03/23 08:03:35;;;;;;;27.90;23.08;;;;;;;-142.70;100.00;60390.16;4831822;29;20396;-74
2023/03/23 08:06:01;;;;;;;28.85;25.10;;;;;;;-142.70;100.00;60390.16;4847129;29;20141;-77
2023/03/23 08:08:26;;;;;;;35.63;29.77;;;;;;;-142.70;100.00;60390.16;4831797;29;20594;-75
2023/03/23 08:10:52;;;;;;;32.53;28.65;;;;;;;-142.70;100.00;60390.16;4831287;29;20484;-75
2023/03/23 08:13:18;;;;;;;33.60;26.35;;;;;;;-142.70;100.00;60390.16;4816033;29;20487;-75
2023/03/23 08:15:44;;;;;;;35.08;28.08;;;;;;;-142.70;100.00;60390.16;4832077;29;20034;-76
2023/03/23 08:18:09;;;;;;;39.50;29.70;;;;;;;-142.70;100.00;60390.16;4830980;29;20694;-76
2023/03/23 08:20:35;;;;;;;36.08;28.15;;;;;;;-142.70;100.00;60390.16;4831916;29;20061;-77
2023/03/23 08:23:02;;;;;;;29.52;24.92;;;;;;;-142.70;100.00;60390.16;4831559;29;20046;-78
2023/03/23 08:25:30;;;;;;;28.98;24.13;;;;;;;-142.70;100.00;60390.16;4816140;29;20033;-78
2023/03/23 08:27:56;;;;;;;30.00;25.08;;;;;;;-142.70;100.00;60390.16;4831481;29;20053;-79
2023/03/23 08:30:22;;;;;;;32.75;25.50;;;;;;;-142.70;100.00;60390.16;4831558;29;20080;-79
2023/03/23 08:32:49;;;;;;;29.50;26.15;;;;;;;-142.70;100.00;60390.16;4831341;29;20495;-78
2023/03/23 08:35:15;;;;;;;27.90;22.55;;;;;;;-142.70;100.00;60390.16;4831077;29;20049;-76
2023/03/23 08:37:41;;;;;;;25.30;22.13;;;;;;;-142.70;100.00;60390.16;4831995;29;20440;-78
2023/03/23 08:40:10;;;;;;;26.30;22.50;;;;;;;-142.70;100.00;60390.16;4831079;29;20069;-77
2023/03/23 08:42:41;;;;;;;25.80;22.07;;;;;;;-142.70;100.00;60390.16;4831387;29;20038;-79
2023/03/23 08:45:08;;;;;;;25.48;21.83;;;;;;;-142.70;100.00;60390.16;4847745;29;20034;-79
2023/03/23 08:47:35;;;;;;;23.60;20.77;;;;;;;-142.70;100.00;60390.16;4829650;29;20037;-76
2023/03/23 08:50:01;;;;;;;22.90;19.73;;;;;;;-142.70;100.00;60390.16;4829719;29;20128;-77
2023/03/23 08:52:28;;;;;;;20.92;18.88;;;;;;;-142.70;100.00;60390.16;4830914;29;20454;-79
2023/03/23 08:54:54;;;;;;;18.55;16.85;;;;;;;-142.70;100.00;60390.16;4831502;29;20033;-78
2023/03/23 08:57:20;;;;;;;20.50;18.50;;;;;;;-142.70;100.00;60390.16;4815550;29;20518;-76
2023/03/23 08:59:46;;;;;;;24.20;21.65;;;;;;;-142.70;100.00;60390.16;4830971;29;20105;-78
2023/03/23 09:02:11;;;;;;;20.05;17.95;;;;;;;-142.70;100.00;60390.16;4816057;29;20574;-78
2023/03/23 09:04:39;;;;;;;21.25;18.90;;;;;;;-142.70;100.00;60390.16;4831030;29;20026;-79
2023/03/23 09:07:05;;;;;;;24.20;21.80;;;;;;;-142.70;100.00;60390.16;4815940;29;20365;-77
2023/03/23 09:09:32;;;;;;;22.55;20.33;;;;;;;-142.70;100.00;60390.16;4830946;29;20041;-77
2023/03/23 09:11:57;;;;;;;19.58;17.48;;;;;;;-142.70;100.00;60390.16;4831034;29;20802;-78
2023/03/23 09:14:23;;;;;;;17.00;15.35;;;;;;;-142.70;100.00;60390.16;4815765;29;20041;-77
2023/03/23 09:16:48;;;;;;;19.48;17.52;;;;;;;-142.70;100.00;60390.16;4842180;29;20041;-76
2023/03/23 09:19:15;;;;;;;20.55;18.42;;;;;;;-142.70;100.00;60390.16;4831004;29;20033;-78
2023/03/23 09:21:41;;;;;;;17.10;15.68;;;;;;;-142.70;100.00;60390.16;4830901;29;20037;-76
2023/03/23 09:24:06;;;;;;;13.40;12.35;;;;;;;-142.70;100.00;60390.16;4830548;29;20034;-76
2023/03/23 09:26:32;;;;;;;17.02;15.38;;;;;;;-142.70;100.00;60390.16;4814615;29;20123;-76
2023/03/23 09:28:58;;;;;;;13.27;12.15;;;;;;;-142.70;100.00;60390.16;4815312;29;20040;-79
2023/03/23 09:31:26;;;;;;;15.65;14.25;;;;;;;-142.70;100.00;60390.16;4846089;29;20512;-78
2023/03/23 09:33:55;;;;;;;13.52;12.20;;;;;;;-142.70;100.00;60390.16;4816127;29;20064;-78
2023/03/23 09:36:21;;;;;;;12.60;11.48;;;;;;;-142.70;100.00;60390.16;4831072;29;20133;-78
2023/03/23 09:38:48;;;;;;;10.52;9.63;;;;;;;-142.70;100.00;60390.16;4830728;29;20427;-76
2023/03/23 09:41:44;;;;;;;10.18;9.30;;;;;;;-142.70;100.00;60390.16;4814219;29;20442;-76
2023/03/23 09:44:22;;;;;;;9.05;8.35;;;;;;;-142.70;100.00;60390.16;4844181;29;20041;-76
2023/03/23 09:47:31;;;;;;;8.90;8.10;;;;;;;-142.70;100.00;60390.16;4814305;29;20467;-78
2023/03/23 09:50:00;;;;;;;10.25;9.45;;;;;;;-142.70;100.00;60390.16;4801465;29;20123;-77
2023/03/23 09:52:56;;;;;;;10.30;9.45;;;;;;;-142.70;100.00;60390.16;4815489;29;20030;-79
2023/03/23 09:55:22;;;;;;;8.38;7.68;;;;;;;-142.70;100.00;60390.16;4753517;29;20085;-77
2023/03/23 09:58:09;;;;;;;8.80;7.93;;;;;;;-142.70;100.00;60390.16;4826287;29;20978;-76
2023/03/23 10:00:41;;;;;;;9.55;8.75;;;;;;;-142.70;100.00;60390.16;4849927;29;20037;-76
2023/03/23 10:03:19;;;;;;;8.13;7.53;;;;;;;-142.70;100.00;60390.16;4863125;29;20034;-78
2023/03/23 10:05:47;;;;;;;7.70;6.97;;;;;;;-142.70;100.00;60390.16;4830694;29;20049;-76
2023/03/23 10:08:19;;;;;;;7.80;6.60;;;;;;;-142.70;100.00;60390.16;4835659;29;20033;-80
2023/03/23 10:11:00;;;;;;;7.35;6.68;;;;;;;-142.70;100.00;60390.16;4831714;29;20873;-78
2023/03/23 10:13:38;;;;;;;6.82;6.32;;;;;;;-142.70;100.00;60390.16;4849144;29;20037;-76
2023/03/23 10:16:13;;;;;;;7.57;7.00;;;;;;;-142.70;100.00;60390.16;4850189;29;20037;-78
2023/03/23 10:18:54;;;;;;;6.97;6.38;;;;;;;-142.70;100.00;60390.16;4848757;29;20033;-77
2023/03/23 10:21:23;;;;;;;7.90;7.40;;;;;;;-142.70;100.00;60390.16;4847658;29;20029;-75
2023/03/23 10:24:01;;;;;;;8.00;7.32;;;;;;;-142.70;100.00;60390.16;4848822;29;20037;-77
2023/03/23 10:26:33;;;;;;;7.60;6.82;;;;;;;-142.70;100.00;60390.16;4847114;29;20060;-76
2023/03/23 10:29:10;;;;;;;7.32;6.80;;;;;;;-142.70;100.00;60390.16;4848873;29;20635;-78
2023/03/23 10:31:58;;;;;;;7.00;6.50;;;;;;;-142.70;100.00;60390.16;4833054;29;20477;-77
2023/03/23 10:34:46;;;;;;;8.50;7.70;;;;;;;-142.70;100.00;60390.16;4829832;29;20045;-77
2023/03/23 10:37:25;;;;;;;7.70;7.10;;;;;;;-142.70;100.00;60390.16;4837572;29;20037;-76
2023/03/23 10:39:52;;;;;;;8.68;7.35;;;;;;;-142.70;100.00;60390.16;4848139;29;20026;-77
2023/03/23 10:42:28;;;;;;;7.45;6.80;;;;;;;-142.70;100.00;60390.16;4850279;29;20056;-78
2023/03/23 10:44:56;;;;;;;9.20;8.50;;;;;;;-142.70;100.00;60390.16;4848391;29;20124;-79
2023/03/23 10:47:22;;;;;;;8.52;7.78;;;;;;;-142.70;100.00;60390.16;4833386;29;20049;-78
2023/03/23 10:49:51;;;;;;;8.85;7.95;;;;;;;-142.70;100.00;60390.16;4848161;29;20503;-82
2023/03/23 10:52:35;;;;;;;8.40;7.55;;;;;;;-142.70;100.00;60390.16;4850188;29;20038;-78
2023/03/23 10:55:14;;;;;;;8.45;7.75;;;;;;;-142.70;100.00;60390.16;4847741;29;20033;-80
2023/03/23 10:57:43;;;;;;;9.82;8.82;;;;;;;-142.70;100.00;60390.16;4846395;29;20049;-78
2023/03/23 11:00:18;;;;;;;7.78;7.07;;;;;;;-142.70;100.00;60390.16;4832186;29;20113;-77